Long Point, Minnesota
Current Conditions -  °F | °C
As of 2:53 AM on Friday 24 Oct 2014 (Local Time) from KBDE Reporting Station
Clear Clear  
Wind Chill: 51°   Ceiling: Unl
Heat Index: 51°   Visibility: 10mi
Dew Point: 40°   Wind: 6mph
Humidity: 66%   Direction: 190°S
Pressure: 29.76"   Gusts: NA
Location:  48.7484°N, 94.9438°W
Report Text: KBDE 240753Z AUTO 19005KT 10SM CLR 11/04 A2976 RMK AO2 SLP082 T01060044 TSNO
Loading
Personal Weather Stations






























Interactive Weather Map
Tropical Storm Tracking
New forecast layout! Learn more

10-Day Weather Forecast

Advertisements
Track Severe Weather on mobile